Time;durP1;ratioP1;P1;durP2;ratioP2;P2;SDS_P1;SDS_P2;PMS_P1;PMS_P2;Temp;Humidity;BMP_temperature;BMP_pressure;BME280_temperature;BME280_humidity;BME280_pressure;Samples;Min_cycle;Max_cycle;Signal;HPM_P1;HPM_P2
2022/06/27 00:01:03;;;;;;;9.18;7.70;;;23.90;99.90;;;;;;5017775;28;20229;-78
2022/06/27 00:03:52;;;;;;;9.75;7.40;;;23.70;99.90;;;;;;5003910;28;20229;-78
2022/06/27 00:06:40;;;;;;;9.82;6.78;;;23.70;99.90;;;;;;5000926;28;20286;-78
2022/06/27 00:09:30;;;;;;;9.77;7.13;;;23.70;99.90;;;;;;5019548;28;20221;-77
2022/06/27 00:12:19;;;;;;;7.90;7.10;;;23.60;99.90;;;;;;5017181;28;20229;-78
2022/06/27 00:15:10;;;;;;;13.40;7.53;;;23.50;99.90;;;;;;5016122;28;20304;-77
2022/06/27 00:17:58;;;;;;;7.70;6.80;;;23.30;99.90;;;;;;5024682;28;20225;-80
2022/06/27 00:20:47;;;;;;;10.45;7.18;;;23.40;99.90;;;;;;5018473;28;20234;-79
2022/06/27 00:23:36;;;;;;;11.93;7.10;;;23.40;99.90;;;;;;4999658;28;20231;-77
2022/06/27 00:26:26;;;;;;;11.07;7.68;;;23.50;99.90;;;;;;5022093;28;20221;-79
2022/06/27 00:29:14;;;;;;;8.35;7.38;;;23.50;99.90;;;;;;5024730;28;20225;-75
2022/06/27 00:32:03;;;;;;;7.95;7.15;;;23.50;99.90;;;;;;5021664;28;20233;-77
2022/06/27 00:34:52;;;;;;;9.27;7.78;;;23.40;99.90;;;;;;5006352;28;20864;-78
2022/06/27 00:37:40;;;;;;;8.65;7.80;;;23.30;99.90;;;;;;5018497;28;20225;-76
2022/06/27 00:40:29;;;;;;;8.43;7.43;;;23.20;99.90;;;;;;5008093;28;20229;-79
2022/06/27 00:43:19;;;;;;;9.90;7.68;;;23.20;99.90;;;;;;5006670;28;20365;-77
2022/06/27 00:46:08;;;;;;;8.25;7.45;;;23.00;99.90;;;;;;5005347;28;20288;-79
2022/06/27 00:48:57;;;;;;;11.68;7.53;;;23.00;99.90;;;;;;5009936;28;20299;-79
2022/06/27 00:51:46;;;;;;;8.13;7.20;;;23.00;99.90;;;;;;5020406;28;20779;-79
2022/06/27 00:54:36;;;;;;;8.43;7.35;;;23.00;99.90;;;;;;5027755;28;20221;-77
2022/06/27 00:57:25;;;;;;;8.52;7.07;;;23.00;99.90;;;;;;5037145;28;20225;-79
2022/06/27 01:00:16;;;;;;;7.90;7.10;;;23.10;99.90;;;;;;5014671;28;20235;-78
2022/06/27 01:03:05;;;;;;;12.10;7.80;;;23.10;99.90;;;;;;5024634;28;20230;-76
2022/06/27 01:05:53;;;;;;;8.30;7.40;;;22.90;99.90;;;;;;5024153;28;20214;-77
2022/06/27 01:08:42;;;;;;;8.15;7.32;;;22.90;99.90;;;;;;5022298;28;20221;-75
2022/06/27 01:11:31;;;;;;;8.70;7.40;;;23.00;99.90;;;;;;5023458;28;20228;-76
2022/06/27 01:14:20;;;;;;;8.35;7.55;;;22.90;99.90;;;;;;5021521;28;20221;-74
2022/06/27 01:17:12;;;;;;;8.98;7.35;;;22.70;99.90;;;;;;5002518;28;20959;-76
2022/06/27 01:20:01;;;;;;;8.27;7.43;;;22.80;99.90;;;;;;5006909;28;20218;-76
2022/06/27 01:22:51;;;;;;;10.60;8.05;;;22.60;99.90;;;;;;5008767;28;20378;-77
2022/06/27 01:25:42;;;;;;;8.82;7.47;;;22.70;99.90;;;;;;5015563;28;20775;-77
2022/06/27 01:28:32;;;;;;;8.77;7.88;;;22.70;99.90;;;;;;5016250;28;20226;-75
2022/06/27 01:31:21;;;;;;;13.73;7.80;;;22.70;99.90;;;;;;5020370;28;20218;-75
2022/06/27 01:34:11;;;;;;;8.13;7.32;;;22.60;99.90;;;;;;5020833;28;20222;-74
2022/06/27 01:37:07;;;;;;;9.15;7.97;;;22.60;99.90;;;;;;5006550;28;20229;-74
2022/06/27 01:40:04;;;;;;;9.75;7.15;;;22.60;99.90;;;;;;5020668;28;20218;-73
2022/06/27 01:42:54;;;;;;;10.25;7.72;;;22.50;99.90;;;;;;5022956;28;20221;-74
2022/06/27 01:45:44;;;;;;;8.98;7.57;;;22.50;99.90;;;;;;5007974;28;20254;-73
2022/06/27 01:48:34;;;;;;;9.13;7.30;;;22.50;99.90;;;;;;5001945;28;20221;-75
2022/06/27 01:51:24;;;;;;;8.00;7.20;;;22.40;99.90;;;;;;5005146;28;20317;-76
2022/06/27 01:54:14;;;;;;;8.07;7.22;;;22.40;99.90;;;;;;5003602;28;20321;-74
2022/06/27 01:57:05;;;;;;;9.85;7.00;;;22.40;99.90;;;;;;4990049;28;20226;-78
2022/06/27 01:59:56;;;;;;;8.35;6.97;;;22.30;99.90;;;;;;5002058;28;20578;-77
2022/06/27 02:02:45;;;;;;;7.45;6.75;;;22.40;99.90;;;;;;5011339;28;20230;-76
2022/06/27 02:05:34;;;;;;;8.23;6.93;;;22.30;99.90;;;;;;5001281;28;21004;-76
2022/06/27 02:08:23;;;;;;;8.82;7.15;;;22.30;99.90;;;;;;5001148;28;20254;-77
2022/06/27 02:11:12;;;;;;;9.43;6.65;;;22.30;99.90;;;;;;5006442;28;20222;-76
2022/06/27 02:14:03;;;;;;;7.88;6.97;;;22.30;99.90;;;;;;4988343;28;21260;-75
2022/06/27 02:16:52;;;;;;;10.25;7.00;;;22.30;99.90;;;;;;4998534;28;20711;-77
2022/06/27 02:19:42;;;;;;;8.93;7.05;;;22.30;99.90;;;;;;4987782;28;20237;-76
2022/06/27 02:22:32;;;;;;;8.27;7.38;;;22.20;99.90;;;;;;5000779;28;20233;-78
2022/06/27 02:25:21;;;;;;;8.75;7.63;;;22.20;99.90;;;;;;5005737;28;20219;-77
2022/06/27 02:28:14;;;;;;;11.18;7.07;;;22.20;99.90;;;;;;5006042;28;20237;-78
2022/06/27 02:31:05;;;;;;;12.48;7.47;;;22.20;99.90;;;;;;4989461;28;20233;-78
2022/06/27 02:33:55;;;;;;;7.55;6.85;;;22.10;99.90;;;;;;5002782;28;20257;-78
2022/06/27 02:36:46;;;;;;;8.57;7.53;;;22.20;99.90;;;;;;5008747;28;20230;-79
2022/06/27 02:39:37;;;;;;;7.18;6.57;;;22.20;99.90;;;;;;5001464;28;20233;-77
2022/06/27 02:42:28;;;;;;;11.20;6.95;;;22.10;99.90;;;;;;4991917;28;20923;-78
2022/06/27 02:45:17;;;;;;;9.70;6.57;;;22.10;99.90;;;;;;5000824;28;20301;-76
2022/06/27 02:48:09;;;;;;;11.43;7.05;;;22.10;99.90;;;;;;5014110;28;20232;-78
2022/06/27 02:51:02;;;;;;;8.05;6.68;;;22.00;99.90;;;;;;5022235;28;20220;-81
2022/06/27 02:53:59;;;;;;;8.57;6.82;;;21.90;99.90;;;;;;5019933;28;20562;-81
2022/06/27 02:57:20;;;;;;;8.07;6.82;;;22.10;99.90;;;;;;5024404;28;20545;-81
2022/06/27 03:00:10;;;;;;;10.48;7.00;;;22.10;99.90;;;;;;5005504;28;20544;-82
2022/06/27 03:03:00;;;;;;;8.52;7.63;;;22.20;99.90;;;;;;5003483;28;20233;-80
2022/06/27 03:06:07;;;;;;;9.20;6.95;;;22.20;99.90;;;;;;5007027;28;20544;-81
2022/06/27 03:08:57;;;;;;;7.57;6.88;;;22.20;99.90;;;;;;5014123;28;20599;-81
2022/06/27 03:11:47;;;;;;;10.00;7.63;;;22.20;99.90;;;;;;5011995;28;20280;-81
2022/06/27 03:14:37;;;;;;;10.85;7.25;;;22.30;99.90;;;;;;5017376;28;20226;-82
2022/06/27 03:17:29;;;;;;;11.32;7.20;;;22.30;99.90;;;;;;5002952;28;20249;-77
2022/06/27 03:20:36;;;;;;;8.18;7.25;;;22.40;99.90;;;;;;5017021;28;20798;-78
2022/06/27 03:23:34;;;;;;;10.05;6.88;;;22.30;99.90;;;;;;5002140;28;20222;-80
2022/06/27 03:26:23;;;;;;;8.52;6.85;;;22.30;99.90;;;;;;5014516;28;20217;-76
2022/06/27 03:29:12;;;;;;;9.10;6.78;;;22.40;99.90;;;;;;5006062;28;20800;-78
2022/06/27 03:32:01;;;;;;;13.63;6.50;;;22.40;99.90;;;;;;5008252;28;20244;-79
2022/06/27 03:34:49;;;;;;;8.55;6.82;;;22.30;99.90;;;;;;5044047;28;20492;-80
2022/06/27 03:37:41;;;;;;;8.38;7.05;;;22.30;99.90;;;;;;5029013;28;20228;-80
2022/06/27 03:40:31;;;;;;;7.00;6.30;;;22.40;99.90;;;;;;5006937;28;20603;-78
2022/06/27 03:43:20;;;;;;;7.75;7.00;;;22.60;99.90;;;;;;5016653;28;20455;-80
2022/06/27 03:46:09;;;;;;;8.00;7.15;;;22.50;99.90;;;;;;5005178;28;20225;-76
2022/06/27 03:52:26;;;;;;;7.45;6.70;;;22.50;99.90;;;;;;5008482;28;20221;-75
2022/06/27 03:55:15;;;;;;;9.15;7.32;;;22.80;99.90;;;;;;5012410;28;20221;-76
2022/06/27 03:58:06;;;;;;;9.38;6.93;;;22.70;99.90;;;;;;5010142;28;20224;-75
2022/06/27 04:00:59;;;;;;;8.02;7.22;;;22.70;99.90;;;;;;5010309;28;20238;-78
2022/06/27 04:03:47;;;;;;;9.10;6.60;;;22.80;99.90;;;;;;5025012;28;20730;-75
2022/06/27 04:06:39;;;;;;;8.55;7.00;;;22.80;99.90;;;;;;5011378;28;20214;-76
2022/06/27 04:09:32;;;;;;;10.35;6.65;;;23.00;99.90;;;;;;5006657;28;20229;-71
2022/06/27 04:12:21;;;;;;;9.60;6.82;;;23.10;99.90;;;;;;5016241;28;20715;-73
2022/06/27 04:15:45;;;;;;;8.98;6.43;;;23.00;99.90;;;;;;5014805;28;20232;-72
2022/06/27 04:18:54;;;;;;;7.13;6.53;;;23.00;99.90;;;;;;5023335;28;20217;-70
2022/06/27 04:22:02;;;;;;;8.88;6.93;;;23.10;99.90;;;;;;5031142;28;20225;-72
2022/06/27 04:25:10;;;;;;;9.13;6.07;;;23.20;99.90;;;;;;5018497;28;20221;-72
2022/06/27 04:28:05;;;;;;;8.73;6.40;;;23.20;99.90;;;;;;5006892;28;20218;-71
2022/06/27 04:30:55;;;;;;;8.50;6.38;;;23.40;99.90;;;;;;5007658;28;20217;-76
2022/06/27 04:33:44;;;;;;;8.52;6.43;;;23.40;99.90;;;;;;5024354;28;20700;-75
2022/06/27 04:36:32;;;;;;;9.20;6.53;;;23.40;99.90;;;;;;5008152;28;20245;-76
2022/06/27 04:39:21;;;;;;;9.05;6.13;;;23.50;99.90;;;;;;5008351;28;20728;-75
2022/06/27 04:42:15;;;;;;;6.50;5.82;;;23.50;99.90;;;;;;5009892;28;20248;-76
2022/06/27 04:45:06;;;;;;;7.43;5.72;;;23.60;99.90;;;;;;5020817;28;20217;-76
2022/06/27 04:47:56;;;;;;;8.18;5.95;;;23.80;99.90;;;;;;5006139;28;20223;-76
2022/06/27 04:50:45;;;;;;;7.57;6.20;;;24.00;99.90;;;;;;5008885;28;20233;-76
2022/06/27 04:53:35;;;;;;;11.75;6.75;;;24.10;99.90;;;;;;5018724;28;20276;-75
2022/06/27 04:56:24;;;;;;;10.43;6.10;;;23.90;99.90;;;;;;5009804;28;20719;-74
2022/06/27 04:59:13;;;;;;;8.38;6.38;;;24.00;99.90;;;;;;5011554;28;20249;-75
2022/06/27 05:02:04;;;;;;;13.85;5.15;;;24.10;99.90;;;;;;5008992;28;20256;-75
2022/06/27 05:04:55;;;;;;;11.02;5.45;;;24.20;99.90;;;;;;5037029;28;20229;-74
2022/06/27 05:07:44;;;;;;;9.20;5.78;;;24.30;99.90;;;;;;5012047;28;20653;-75
2022/06/27 05:10:32;;;;;;;8.60;5.68;;;24.30;99.90;;;;;;5018392;28;20363;-76
2022/06/27 05:13:21;;;;;;;8.73;6.35;;;24.50;99.90;;;;;;5011573;28;20364;-73
2022/06/27 05:16:10;;;;;;;7.03;5.60;;;24.60;99.90;;;;;;5007490;28;20317;-75
2022/06/27 05:19:02;;;;;;;8.18;6.03;;;24.70;99.90;;;;;;5020868;28;20587;-73
2022/06/27 05:22:07;;;;;;;8.07;5.60;;;24.80;99.90;;;;;;5020992;28;20274;-75
2022/06/27 05:24:58;;;;;;;8.07;5.30;;;25.00;99.90;;;;;;5005240;28;20218;-74
2022/06/27 05:27:47;;;;;;;11.77;5.80;;;25.00;99.90;;;;;;5006425;28;20222;-75
2022/06/27 05:30:36;;;;;;;11.00;5.85;;;25.20;99.90;;;;;;5023106;28;20230;-76
2022/06/27 05:33:26;;;;;;;10.05;5.53;;;25.30;99.90;;;;;;5009017;28;20219;-76
2022/06/27 05:36:15;;;;;;;9.38;5.60;;;25.40;99.90;;;;;;5012053;28;20221;-75
2022/06/27 05:39:06;;;;;;;8.10;5.35;;;25.40;99.90;;;;;;5010208;28;20291;-71
2022/06/27 05:41:55;;;;;;;10.30;5.40;;;25.40;99.90;;;;;;5015542;28;20275;-74
2022/06/27 05:44:46;;;;;;;13.38;5.88;;;25.30;99.90;;;;;;5021839;28;20224;-74
2022/06/27 05:47:36;;;;;;;10.15;5.50;;;25.40;99.90;;;;;;5020945;28;20217;-82
2022/06/27 05:50:34;;;;;;;5.90;5.25;;;25.50;99.90;;;;;;5007868;28;20236;-77
2022/06/27 05:53:28;;;;;;;5.70;5.20;;;25.60;99.90;;;;;;5011546;28;20257;-77
2022/06/27 05:56:22;;;;;;;9.18;5.28;;;25.70;99.90;;;;;;5009499;28;20229;-77
2022/06/27 05:59:11;;;;;;;6.93;5.50;;;25.70;99.90;;;;;;5002841;28;20226;-78
2022/06/27 06:02:01;;;;;;;6.60;5.07;;;25.80;99.90;;;;;;5024542;28;20221;-77
2022/06/27 06:04:56;;;;;;;8.98;4.68;;;25.80;99.90;;;;;;5034178;28;20328;-77
2022/06/27 06:07:45;;;;;;;11.73;5.93;;;26.00;99.90;;;;;;5021075;28;20697;-75
2022/06/27 06:10:34;;;;;;;5.63;5.13;;;26.10;99.90;;;;;;5009537;28;20221;-77
2022/06/27 06:13:25;;;;;;;8.55;5.20;;;26.20;99.90;;;;;;5009287;28;20228;-77
2022/06/27 06:16:19;;;;;;;10.38;5.20;;;26.20;99.90;;;;;;5010611;28;20533;-77
2022/06/27 06:19:09;;;;;;;8.75;5.30;;;26.30;99.90;;;;;;5020391;28;20222;-77
2022/06/27 06:21:57;;;;;;;7.07;5.00;;;26.40;99.90;;;;;;5020655;28;20296;-78
2022/06/27 06:24:49;;;;;;;8.63;4.78;;;26.80;99.90;;;;;;5010853;28;20248;-78
2022/06/27 06:27:40;;;;;;;6.80;4.63;;;27.70;97.60;;;;;;5014129;28;20210;-78
2022/06/27 06:30:33;;;;;;;5.97;4.13;;;28.70;93.50;;;;;;5008282;28;20234;-78
2022/06/27 06:33:26;;;;;;;6.40;4.65;;;29.00;90.80;;;;;;5004861;28;20213;-77
2022/06/27 06:36:15;;;;;;;8.07;4.50;;;28.60;90.80;;;;;;5028123;28;20218;-77
2022/06/27 06:39:04;;;;;;;5.25;4.05;;;28.40;90.80;;;;;;5004314;28;20910;-77
2022/06/27 06:41:53;;;;;;;4.25;3.85;;;28.10;91.10;;;;;;4999727;28;20217;-77
2022/06/27 06:44:43;;;;;;;5.63;3.65;;;27.90;90.60;;;;;;5002766;28;20280;-77
2022/06/27 06:47:46;;;;;;;6.03;3.63;;;27.80;90.60;;;;;;5001852;28;20330;-76
2022/06/27 06:50:35;;;;;;;5.55;3.60;;;28.00;90.50;;;;;;5004585;28;20225;-76
2022/06/27 06:53:24;;;;;;;6.82;4.10;;;28.20;89.90;;;;;;5024055;28;20327;-77
2022/06/27 06:56:13;;;;;;;6.63;4.35;;;28.30;89.20;;;;;;5006850;28;20222;-75
2022/06/27 06:59:04;;;;;;;9.73;3.90;;;28.30;90.00;;;;;;5024233;28;20228;-77
2022/06/27 07:01:53;;;;;;;5.45;3.63;;;28.30;90.30;;;;;;5020064;28;20221;-77
2022/06/27 07:04:43;;;;;;;7.38;3.70;;;28.40;87.90;;;;;;5020787;28;20213;-77
2022/06/27 07:07:34;;;;;;;3.80;3.50;;;28.40;88.10;;;;;;5001369;28;20222;-78
2022/06/27 07:10:28;;;;;;;4.35;3.60;;;28.50;88.10;;;;;;5017412;28;20353;-78
2022/06/27 07:13:19;;;;;;;4.28;3.88;;;28.60;85.80;;;;;;5017069;28;20222;-78
2022/06/27 07:16:07;;;;;;;4.05;3.63;;;28.80;85.70;;;;;;5018424;28;20253;-78
2022/06/27 07:19:00;;;;;;;5.68;4.07;;;29.10;85.50;;;;;;5011334;28;20383;-77
2022/06/27 07:21:50;;;;;;;5.47;4.13;;;29.10;85.60;;;;;;5014900;28;20957;-76
2022/06/27 07:24:40;;;;;;;10.35;3.95;;;29.00;85.90;;;;;;5015864;28;20221;-77
2022/06/27 07:27:33;;;;;;;3.95;3.55;;;29.00;85.20;;;;;;5007036;28;20263;-77
2022/06/27 07:30:26;;;;;;;6.40;3.90;;;29.10;87.00;;;;;;5019652;28;20217;-75
2022/06/27 07:33:15;;;;;;;8.30;4.07;;;29.20;85.00;;;;;;5018746;28;20242;-76
2022/06/27 07:36:08;;;;;;;7.93;3.85;;;29.50;84.50;;;;;;5011543;28;20218;-78
2022/06/27 07:38:58;;;;;;;3.70;3.40;;;29.90;82.60;;;;;;5017905;28;20232;-77
2022/06/27 07:41:51;;;;;;;4.63;3.55;;;30.40;78.20;;;;;;5009530;28;20902;-78
2022/06/27 07:44:39;;;;;;;5.50;3.50;;;30.60;77.80;;;;;;5017975;28;20229;-78
2022/06/27 07:47:32;;;;;;;4.72;3.13;;;31.00;75.50;;;;;;5010008;28;20614;-77
2022/06/27 07:50:39;;;;;;;5.25;3.53;;;31.50;73.50;;;;;;5012501;28;20298;-78
2022/06/27 07:53:29;;;;;;;4.03;3.60;;;31.30;73.30;;;;;;5015998;28;20252;-78
2022/06/27 07:56:25;;;;;;;5.63;3.38;;;31.90;75.50;;;;;;5029618;28;20652;-77
2022/06/27 07:59:34;;;;;;;3.90;3.60;;;32.30;73.00;;;;;;5021385;28;20225;-78
2022/06/27 08:02:23;;;;;;;5.30;3.35;;;32.70;70.70;;;;;;5006914;28;20225;-78
2022/06/27 08:05:11;;;;;;;8.48;3.33;;;32.80;69.60;;;;;;5004066;28;20239;-78
2022/06/27 08:08:01;;;;;;;3.65;3.35;;;33.30;67.70;;;;;;5006731;28;20276;-75
2022/06/27 08:10:50;;;;;;;9.10;3.28;;;33.70;67.00;;;;;;5024411;28;20224;-76
2022/06/27 08:13:41;;;;;;;3.35;3.05;;;33.70;66.80;;;;;;5017823;28;20225;-78
2022/06/27 08:16:31;;;;;;;5.57;3.30;;;33.40;64.70;;;;;;5003303;28;20743;-77
2022/06/27 08:19:21;;;;;;;4.00;3.38;;;33.60;65.50;;;;;;5032381;28;20233;-78
2022/06/27 08:22:10;;;;;;;7.13;3.40;;;34.00;64.70;;;;;;5017968;28;20217;-77
2022/06/27 08:24:58;;;;;;;4.40;2.80;;;33.40;63.10;;;;;;5020785;28;20229;-76
2022/06/27 08:27:48;;;;;;;3.90;2.72;;;33.80;62.80;;;;;;5005770;28;20662;-78
2022/06/27 08:30:39;;;;;;;3.40;3.05;;;34.40;62.20;;;;;;5003209;28;20327;-79
2022/06/27 08:33:27;;;;;;;6.28;3.10;;;34.20;61.50;;;;;;5017194;28;20721;-77
2022/06/27 08:36:19;;;;;;;3.35;3.03;;;34.70;60.80;;;;;;5005099;28;20241;-78
2022/06/27 08:39:11;;;;;;;13.90;3.40;;;35.10;61.10;;;;;;5020546;28;20221;-78
2022/06/27 08:42:00;;;;;;;9.93;3.00;;;35.70;60.90;;;;;;5022858;28;20309;-78
2022/06/27 08:44:49;;;;;;;3.90;3.05;;;35.60;58.00;;;;;;5022439;28;20698;-78
2022/06/27 08:47:41;;;;;;;7.13;3.30;;;35.30;58.90;;;;;;5022603;28;21208;-80
2022/06/27 08:50:29;;;;;;;4.00;3.60;;;35.90;58.70;;;;;;5020480;28;20243;-76
2022/06/27 08:53:23;;;;;;;4.70;2.65;;;35.50;58.60;;;;;;5025157;28;20225;-76
2022/06/27 08:56:13;;;;;;;3.05;2.85;;;35.70;58.80;;;;;;5019088;28;20243;-77
2022/06/27 08:59:03;;;;;;;3.40;2.60;;;35.90;58.20;;;;;;5020260;28;20229;-77
2022/06/27 09:01:52;;;;;;;4.90;2.80;;;35.80;55.70;;;;;;5025520;28;20231;-77
2022/06/27 09:05:02;;;;;;;3.15;2.78;;;36.90;55.00;;;;;;5025474;28;20501;-77
2022/06/27 09:07:52;;;;;;;5.70;2.63;;;36.60;53.70;;;;;;5023000;28;20674;-76
2022/06/27 09:10:43;;;;;;;5.18;2.78;;;36.80;53.70;;;;;;5020282;28;20301;-76
2022/06/27 09:13:32;;;;;;;3.40;2.55;;;37.10;53.50;;;;;;5010531;28;20589;-76
2022/06/27 09:16:21;;;;;;;4.88;2.67;;;36.60;54.60;;;;;;5021887;28;20228;-77
2022/06/27 09:19:10;;;;;;;4.32;2.67;;;35.50;53.70;;;;;;5022565;28;20218;-76
2022/06/27 09:22:15;;;;;;;4.05;2.45;;;35.00;54.40;;;;;;5021814;28;20243;-75
2022/06/27 09:25:06;;;;;;;4.78;2.50;;;36.60;53.90;;;;;;5012550;28;20228;-76
2022/06/27 09:27:56;;;;;;;4.82;2.60;;;37.40;51.70;;;;;;5020592;28;20224;-75
2022/06/27 09:30:46;;;;;;;4.10;2.67;;;37.80;50.40;;;;;;5020998;28;20213;-76
2022/06/27 09:33:38;;;;;;;11.75;3.00;;;37.60;51.30;;;;;;5014998;28;20692;-76
2022/06/27 09:36:28;;;;;;;8.05;2.83;;;38.70;50.50;;;;;;5022598;28;20255;-76
2022/06/27 09:39:22;;;;;;;4.07;2.72;;;39.00;49.60;;;;;;5023422;28;20232;-76
2022/06/27 09:42:13;;;;;;;3.80;2.53;;;39.30;49.50;;;;;;5023556;28;20240;-76
2022/06/27 09:45:04;;;;;;;4.68;3.08;;;39.30;49.80;;;;;;5008399;28;20282;-78
2022/06/27 09:47:59;;;;;;;4.10;2.78;;;39.90;50.10;;;;;;5019090;28;20260;-76
2022/06/27 09:50:49;;;;;;;3.50;2.63;;;39.70;49.30;;;;;;5024383;28;20239;-77
2022/06/27 09:53:40;;;;;;;4.93;2.72;;;39.10;48.90;;;;;;5025512;28;20233;-78
2022/06/27 09:56:31;;;;;;;3.65;2.80;;;38.00;49.90;;;;;;5017448;28;20217;-77
2022/06/27 09:59:20;;;;;;;2.88;2.58;;;37.50;51.00;;;;;;5020608;28;20292;-78
2022/06/27 10:02:09;;;;;;;4.93;2.60;;;35.80;51.80;;;;;;5021826;28;20564;-79
2022/06/27 10:04:59;;;;;;;4.72;2.60;;;34.60;54.00;;;;;;5020128;28;20237;-78
2022/06/27 10:07:54;;;;;;;4.22;2.80;;;34.90;54.80;;;;;;5024292;28;20236;-77
2022/06/27 10:11:11;;;;;;;6.05;2.67;;;35.40;53.20;;;;;;5024060;28;20572;-77
2022/06/27 10:14:19;;;;;;;4.40;2.95;;;36.10;52.80;;;;;;4987675;28;20225;-79
2022/06/27 10:17:15;;;;;;;5.25;3.10;;;37.30;53.40;;;;;;5032418;28;20225;-77
2022/06/27 10:20:07;;;;;;;3.63;2.38;;;38.10;50.10;;;;;;5020282;28;20858;-77
2022/06/27 10:23:28;;;;;;;7.10;2.70;;;39.40;48.50;;;;;;5007910;28;20248;-77
2022/06/27 10:26:41;;;;;;;3.08;2.75;;;38.70;48.70;;;;;;5018749;28;20271;-77
2022/06/27 10:29:44;;;;;;;2.80;2.58;;;37.00;50.30;;;;;;5019958;28;20221;-75
2022/06/27 10:32:43;;;;;;;5.05;2.90;;;35.20;53.40;;;;;;5002726;28;20227;-77
2022/06/27 10:35:33;;;;;;;3.05;2.80;;;34.40;54.90;;;;;;5023393;28;20212;-77
2022/06/27 10:38:23;;;;;;;3.10;2.90;;;34.70;55.80;;;;;;5021442;28;20735;-75
2022/06/27 10:41:45;;;;;;;4.45;3.40;;;35.60;55.10;;;;;;5034307;28;20307;-77
2022/06/27 10:44:33;;;;;;;5.05;2.80;;;36.30;53.10;;;;;;5020019;28;20235;-77
2022/06/27 10:47:36;;;;;;;10.82;3.30;;;36.80;54.10;;;;;;5019055;28;20362;-75
2022/06/27 10:50:28;;;;;;;3.38;2.92;;;37.80;51.60;;;;;;5016087;28;20228;-76
2022/06/27 10:53:24;;;;;;;7.47;3.40;;;37.70;52.50;;;;;;5016745;28;20302;-79
2022/06/27 10:56:32;;;;;;;5.55;3.00;;;38.40;50.70;;;;;;5020707;28;20278;-79
2022/06/27 10:59:57;;;;;;;6.18;3.00;;;39.60;50.10;;;;;;5009086;28;20594;-78
2022/06/27 11:02:54;;;;;;;3.72;3.42;;;40.10;48.60;;;;;;5004162;28;21216;-80
2022/06/27 11:05:58;;;;;;;3.38;2.90;;;41.40;47.50;;;;;;5023586;28;20225;-76
2022/06/27 11:08:49;;;;;;;5.20;2.58;;;42.20;46.00;;;;;;5019505;28;20229;-78
2022/06/27 11:11:44;;;;;;;6.55;2.95;;;42.30;46.60;;;;;;5018665;28;20223;-79
2022/06/27 11:14:44;;;;;;;3.75;2.50;;;42.50;45.50;;;;;;5037727;28;20213;-78
2022/06/27 11:17:41;;;;;;;6.68;2.80;;;43.90;42.90;;;;;;5020982;28;20355;-78
2022/06/27 11:20:31;;;;;;;3.58;2.15;;;44.30;43.20;;;;;;5004339;28;20232;-78
2022/06/27 11:23:27;;;;;;;5.50;2.30;;;45.30;40.70;;;;;;5019465;28;20308;-76
2022/06/27 11:26:16;;;;;;;4.28;2.50;;;45.40;39.40;;;;;;5007163;28;20249;-76
2022/06/27 11:32:23;;;;;;;5.85;2.58;;;45.50;39.30;;;;;;5019595;28;20213;-77
2022/06/27 11:35:12;;;;;;;4.40;2.40;;;44.80;39.60;;;;;;5026465;28;20240;-77
2022/06/27 11:38:05;;;;;;;4.88;2.67;;;45.10;39.70;;;;;;5039853;28;20235;-78
2022/06/27 11:41:08;;;;;;;2.78;2.45;;;44.90;39.40;;;;;;5020071;28;20221;-74
2022/06/27 11:43:58;;;;;;;3.95;2.28;;;44.80;38.50;;;;;;5024810;28;20228;-71
2022/06/27 11:46:49;;;;;;;4.32;2.53;;;41.00;40.90;;;;;;5021972;28;20322;-72
2022/06/27 11:49:39;;;;;;;2.95;2.53;;;41.70;44.10;;;;;;5002455;28;20225;-73
2022/06/27 11:52:39;;;;;;;3.25;2.30;;;43.00;42.30;;;;;;5017187;28;20213;-77
2022/06/27 11:55:31;;;;;;;2.30;2.10;;;43.00;40.30;;;;;;5017100;28;20790;-77
2022/06/27 11:58:19;;;;;;;8.00;2.20;;;42.00;40.10;;;;;;5007443;28;20228;-76
2022/06/27 12:01:11;;;;;;;2.67;2.00;;;43.00;40.30;;;;;;5008549;28;20229;-76
2022/06/27 12:04:11;;;;;;;5.53;2.13;;;43.30;38.50;;;;;;5023827;28;20224;-74
2022/06/27 12:07:07;;;;;;;3.28;2.17;;;44.00;38.20;;;;;;5022313;28;20240;-76
2022/06/27 12:10:00;;;;;;;6.28;2.33;;;43.70;37.80;;;;;;5024586;28;20224;-76
2022/06/27 12:12:50;;;;;;;3.93;2.30;;;43.50;38.90;;;;;;5021733;28;20449;-75
2022/06/27 12:15:42;;;;;;;4.50;2.35;;;44.40;37.80;;;;;;5022019;28;21031;-76
2022/06/27 12:18:34;;;;;;;3.13;2.22;;;44.90;37.60;;;;;;5022046;28;20221;-75
2022/06/27 12:21:23;;;;;;;5.50;2.20;;;45.20;39.60;;;;;;5024609;28;20239;-75
2022/06/27 12:24:12;;;;;;;9.27;2.75;;;45.40;37.40;;;;;;5024629;28;20233;-77
2022/06/27 12:27:01;;;;;;;7.10;2.40;;;44.80;37.50;;;;;;5018584;28;20221;-74
2022/06/27 12:29:51;;;;;;;2.63;2.20;;;42.70;38.40;;;;;;4996243;28;20715;-75
2022/06/27 12:32:40;;;;;;;3.90;2.30;;;43.50;39.70;;;;;;5015516;28;20217;-76
2022/06/27 12:35:30;;;;;;;5.00;2.40;;;44.00;39.20;;;;;;5022446;28;20224;-75
2022/06/27 12:38:19;;;;;;;4.43;2.20;;;44.20;38.00;;;;;;5016850;28;20224;-76
2022/06/27 12:41:15;;;;;;;4.72;2.72;;;44.40;39.10;;;;;;5021203;28;20549;-75
2022/06/27 12:44:04;;;;;;;4.25;2.15;;;44.30;39.00;;;;;;5024197;28;20356;-77
2022/06/27 12:46:55;;;;;;;2.42;2.13;;;44.80;39.40;;;;;;5005690;28;20232;-76
2022/06/27 12:49:45;;;;;;;3.38;2.10;;;44.10;38.80;;;;;;5022987;28;20332;-76
2022/06/27 12:52:33;;;;;;;4.15;2.60;;;41.40;41.10;;;;;;5003727;28;20221;-75
2022/06/27 12:55:22;;;;;;;2.88;2.35;;;40.70;41.80;;;;;;5022515;28;20315;-75
2022/06/27 12:58:11;;;;;;;4.55;2.30;;;39.60;42.70;;;;;;5025885;28;20239;-77
2022/06/27 13:00:59;;;;;;;4.15;2.40;;;38.30;44.80;;;;;;5024689;28;20682;-74
2022/06/27 13:03:49;;;;;;;3.97;2.70;;;37.40;47.10;;;;;;5027140;28;20239;-76
2022/06/27 13:06:38;;;;;;;4.93;2.50;;;36.70;48.50;;;;;;5025025;28;20216;-75
2022/06/27 13:09:27;;;;;;;3.00;2.67;;;36.10;48.30;;;;;;5024465;28;20224;-75
2022/06/27 13:12:16;;;;;;;3.00;2.70;;;35.90;49.10;;;;;;5024212;28;20217;-75
2022/06/27 13:15:05;;;;;;;3.78;2.60;;;35.20;49.50;;;;;;5011606;28;20233;-75
2022/06/27 13:17:54;;;;;;;5.22;2.70;;;34.90;50.80;;;;;;5023884;28;20326;-75
2022/06/27 13:20:43;;;;;;;3.28;2.97;;;34.70;50.80;;;;;;5024973;28;20233;-75
2022/06/27 13:23:35;;;;;;;5.43;2.70;;;34.50;51.50;;;;;;5012195;28;20231;-74
2022/06/27 13:26:44;;;;;;;3.47;3.17;;;34.20;52.00;;;;;;5019431;28;20221;-74
2022/06/27 13:29:33;;;;;;;3.85;3.20;;;33.60;52.90;;;;;;5013243;28;20623;-75
2022/06/27 13:32:21;;;;;;;5.20;2.95;;;33.80;53.70;;;;;;5022909;28;20221;-75
2022/06/27 13:35:11;;;;;;;3.92;3.25;;;33.90;53.30;;;;;;5019167;28;20271;-74
2022/06/27 13:38:03;;;;;;;4.85;3.10;;;33.90;52.40;;;;;;5004934;28;20240;-74
2022/06/27 13:40:52;;;;;;;5.13;3.17;;;33.80;52.90;;;;;;5023326;28;20247;-74
2022/06/27 13:43:41;;;;;;;6.88;3.28;;;33.70;52.70;;;;;;5021893;28;20225;-75
2022/06/27 13:46:29;;;;;;;3.20;2.90;;;33.50;53.50;;;;;;5023251;28;20229;-74
2022/06/27 13:49:21;;;;;;;7.22;3.20;;;33.40;53.00;;;;;;5022953;28;20595;-73
2022/06/27 13:52:10;;;;;;;3.00;2.80;;;33.40;53.60;;;;;;5009578;28;20587;-74
2022/06/27 13:55:01;;;;;;;3.35;2.70;;;33.20;52.80;;;;;;5023010;28;20224;-75
2022/06/27 13:57:51;;;;;;;5.32;3.28;;;33.20;53.40;;;;;;5020706;28;20229;-74
2022/06/27 14:01:00;;;;;;;3.75;3.25;;;33.20;53.10;;;;;;5007724;28;20221;-73
2022/06/27 14:03:48;;;;;;;4.95;2.65;;;33.00;53.50;;;;;;5024833;28;20221;-71
2022/06/27 14:09:43;;;;;;;6.10;3.35;;;32.70;54.40;;;;;;5025435;28;20231;-75
2022/06/27 14:12:33;;;;;;;5.22;3.63;;;32.80;55.20;;;;;;5022840;28;20308;-75
2022/06/27 14:15:23;;;;;;;3.60;3.30;;;32.80;55.30;;;;;;5021348;28;20708;-73
2022/06/27 14:18:12;;;;;;;5.68;3.13;;;32.90;55.00;;;;;;5024094;28;20291;-74
2022/06/27 14:21:00;;;;;;;8.00;3.03;;;32.80;55.00;;;;;;5030060;28;20239;-74
2022/06/27 14:23:49;;;;;;;5.95;3.00;;;32.80;55.40;;;;;;5012330;28;20220;-74
2022/06/27 14:26:38;;;;;;;3.05;2.67;;;32.80;56.00;;;;;;5026046;28;20235;-76
2022/06/27 14:29:28;;;;;;;3.33;3.10;;;32.70;55.60;;;;;;5027227;28;20736;-72
2022/06/27 14:32:17;;;;;;;5.15;3.40;;;32.60;56.50;;;;;;5026097;28;20292;-76
2022/06/27 14:35:06;;;;;;;6.22;3.00;;;32.70;56.20;;;;;;5021391;28;20232;-76
2022/06/27 14:37:55;;;;;;;6.28;3.13;;;32.60;56.00;;;;;;5011599;28;20438;-74
2022/06/27 14:40:45;;;;;;;4.72;3.38;;;32.40;56.20;;;;;;5020071;28;20225;-75
2022/06/27 14:43:34;;;;;;;4.93;2.90;;;32.30;56.30;;;;;;5002260;28;20220;-76
2022/06/27 14:46:24;;;;;;;3.25;2.95;;;32.20;56.30;;;;;;5023712;28;20237;-76
2022/06/27 14:49:13;;;;;;;4.32;3.00;;;32.20;56.90;;;;;;4998963;28;20309;-76
2022/06/27 14:52:02;;;;;;;3.17;2.85;;;32.10;56.50;;;;;;5019675;28;20305;-74
2022/06/27 14:54:50;;;;;;;5.97;3.13;;;32.00;56.20;;;;;;5018323;28;20306;-76
2022/06/27 14:57:39;;;;;;;4.28;2.97;;;31.90;56.30;;;;;;5013063;28;20217;-74
2022/06/27 15:00:28;;;;;;;4.63;3.08;;;31.80;56.20;;;;;;5018969;28;20218;-73
2022/06/27 15:03:20;;;;;;;6.20;3.17;;;31.70;56.30;;;;;;5004439;28;20220;-74